sensor_id;sensor_type;location;lat;lon;timestamp;P1;durP1;ratioP1;P2;durP2;ratioP2
10452;SDS011;5274;51.992;8.518;2023-09-12T00:01:03;57.85;;;53.78;;
10452;SDS011;5274;51.992;8.518;2023-09-12T00:03:30;56.00;;;52.30;;
10452;SDS011;5274;51.992;8.518;2023-09-12T00:05:57;55.42;;;51.85;;
10452;SDS011;5274;51.992;8.518;2023-09-12T00:08:23;58.15;;;54.35;;
10452;SDS011;5274;51.992;8.518;2023-09-12T00:11:06;58.03;;;54.22;;
10452;SDS011;5274;51.992;8.518;2023-09-12T00:13:35;58.80;;;54.90;;
10452;SDS011;5274;51.992;8.518;2023-09-12T00:16:01;57.30;;;53.35;;
10452;SDS011;5274;51.992;8.518;2023-09-12T00:18:27;57.15;;;53.25;;
10452;SDS011;5274;51.992;8.518;2023-09-12T00:20:53;57.45;;;53.65;;
10452;SDS011;5274;51.992;8.518;2023-09-12T00:23:20;58.05;;;54.22;;
10452;SDS011;5274;51.992;8.518;2023-09-12T00:25:47;59.25;;;54.90;;
10452;SDS011;5274;51.992;8.518;2023-09-12T00:28:13;60.35;;;56.20;;
10452;SDS011;5274;51.992;8.518;2023-09-12T00:30:39;57.45;;;53.75;;
10452;SDS011;5274;51.992;8.518;2023-09-12T00:33:05;56.70;;;53.03;;
10452;SDS011;5274;51.992;8.518;2023-09-12T00:35:31;54.97;;;51.42;;
10452;SDS011;5274;51.992;8.518;2023-09-12T00:37:57;56.78;;;53.08;;
10452;SDS011;5274;51.992;8.518;2023-09-12T00:40:23;56.90;;;53.10;;
10452;SDS011;5274;51.992;8.518;2023-09-12T00:42:49;55.42;;;51.90;;
10452;SDS011;5274;51.992;8.518;2023-09-12T00:45:15;56.67;;;53.08;;
10452;SDS011;5274;51.992;8.518;2023-09-12T00:47:41;57.78;;;53.80;;
10452;SDS011;5274;51.992;8.518;2023-09-12T00:50:07;58.20;;;54.10;;
10452;SDS011;5274;51.992;8.518;2023-09-12T00:52:34;57.22;;;53.60;;
10452;SDS011;5274;51.992;8.518;2023-09-12T00:55:00;57.70;;;54.00;;
10452;SDS011;5274;51.992;8.518;2023-09-12T00:57:27;57.10;;;53.47;;
10452;SDS011;5274;51.992;8.518;2023-09-12T00:59:53;58.88;;;55.08;;
10452;SDS011;5274;51.992;8.518;2023-09-12T01:02:20;57.85;;;54.08;;
10452;SDS011;5274;51.992;8.518;2023-09-12T01:04:47;58.03;;;54.25;;
10452;SDS011;5274;51.992;8.518;2023-09-12T01:07:13;58.72;;;54.92;;
10452;SDS011;5274;51.992;8.518;2023-09-12T01:09:40;58.90;;;55.08;;
10452;SDS011;5274;51.992;8.518;2023-09-12T01:12:06;59.47;;;55.45;;
10452;SDS011;5274;51.992;8.518;2023-09-12T01:14:32;60.20;;;56.10;;
10452;SDS011;5274;51.992;8.518;2023-09-12T01:16:58;60.25;;;56.35;;
10452;SDS011;5274;51.992;8.518;2023-09-12T01:19:24;60.47;;;56.45;;
10452;SDS011;5274;51.992;8.518;2023-09-12T01:22:03;61.05;;;57.05;;
10452;SDS011;5274;51.992;8.518;2023-09-12T01:24:50;61.45;;;57.30;;
10452;SDS011;5274;51.992;8.518;2023-09-12T01:27:22;61.85;;;57.63;;
10452;SDS011;5274;51.992;8.518;2023-09-12T01:29:50;62.33;;;58.13;;
10452;SDS011;5274;51.992;8.518;2023-09-12T01:32:18;61.33;;;57.13;;
10452;SDS011;5274;51.992;8.518;2023-09-12T01:34:45;62.17;;;57.80;;
10452;SDS011;5274;51.992;8.518;2023-09-12T01:37:11;63.95;;;59.45;;
10452;SDS011;5274;51.992;8.518;2023-09-12T01:39:37;63.05;;;58.53;;
10452;SDS011;5274;51.992;8.518;2023-09-12T01:42:03;63.33;;;58.97;;
10452;SDS011;5274;51.992;8.518;2023-09-12T01:44:29;63.38;;;58.95;;
10452;SDS011;5274;51.992;8.518;2023-09-12T01:46:57;62.08;;;57.42;;
10452;SDS011;5274;51.992;8.518;2023-09-12T01:49:27;63.55;;;58.90;;
10452;SDS011;5274;51.992;8.518;2023-09-12T01:51:54;61.65;;;57.35;;
10452;SDS011;5274;51.992;8.518;2023-09-12T01:54:20;62.45;;;57.50;;
10452;SDS011;5274;51.992;8.518;2023-09-12T01:56:47;62.83;;;58.42;;
10452;SDS011;5274;51.992;8.518;2023-09-12T01:59:13;64.05;;;59.30;;
10452;SDS011;5274;51.992;8.518;2023-09-12T02:01:39;64.22;;;59.55;;
10452;SDS011;5274;51.992;8.518;2023-09-12T02:04:07;66.03;;;61.05;;
10452;SDS011;5274;51.992;8.518;2023-09-12T02:06:34;64.07;;;59.22;;
10452;SDS011;5274;51.992;8.518;2023-09-12T02:09:00;64.15;;;59.65;;
10452;SDS011;5274;51.992;8.518;2023-09-12T02:11:26;67.13;;;62.22;;
10452;SDS011;5274;51.992;8.518;2023-09-12T02:13:52;65.35;;;60.65;;
10452;SDS011;5274;51.992;8.518;2023-09-12T02:16:18;66.85;;;61.92;;
10452;SDS011;5274;51.992;8.518;2023-09-12T02:18:44;67.30;;;62.30;;
10452;SDS011;5274;51.992;8.518;2023-09-12T02:21:10;64.88;;;60.13;;
10452;SDS011;5274;51.992;8.518;2023-09-12T02:23:36;67.80;;;62.40;;
10452;SDS011;5274;51.992;8.518;2023-09-12T02:26:02;70.35;;;65.10;;
10452;SDS011;5274;51.992;8.518;2023-09-12T02:28:28;70.20;;;65.00;;
10452;SDS011;5274;51.992;8.518;2023-09-12T02:30:54;69.45;;;64.25;;
10452;SDS011;5274;51.992;8.518;2023-09-12T02:33:20;67.15;;;62.08;;
10452;SDS011;5274;51.992;8.518;2023-09-12T02:35:46;66.93;;;62.08;;
10452;SDS011;5274;51.992;8.518;2023-09-12T02:38:13;68.45;;;63.30;;
10452;SDS011;5274;51.992;8.518;2023-09-12T02:40:39;67.82;;;62.75;;
10452;SDS011;5274;51.992;8.518;2023-09-12T02:43:05;66.90;;;62.03;;
10452;SDS011;5274;51.992;8.518;2023-09-12T02:45:31;67.78;;;62.78;;
10452;SDS011;5274;51.992;8.518;2023-09-12T02:47:56;67.47;;;62.38;;
10452;SDS011;5274;51.992;8.518;2023-09-12T02:50:22;67.07;;;62.25;;
10452;SDS011;5274;51.992;8.518;2023-09-12T02:52:48;66.63;;;61.83;;
10452;SDS011;5274;51.992;8.518;2023-09-12T02:55:14;67.60;;;62.65;;
10452;SDS011;5274;51.992;8.518;2023-09-12T02:57:40;64.95;;;60.15;;
10452;SDS011;5274;51.992;8.518;2023-09-12T03:00:06;63.20;;;58.63;;
10452;SDS011;5274;51.992;8.518;2023-09-12T03:02:34;65.70;;;60.65;;
10452;SDS011;5274;51.992;8.518;2023-09-12T03:05:00;63.80;;;59.25;;
10452;SDS011;5274;51.992;8.518;2023-09-12T03:07:26;65.00;;;60.15;;
10452;SDS011;5274;51.992;8.518;2023-09-12T03:09:52;65.82;;;61.13;;
10452;SDS011;5274;51.992;8.518;2023-09-12T03:12:18;67.03;;;61.83;;
10452;SDS011;5274;51.992;8.518;2023-09-12T03:14:44;67.32;;;62.13;;
10452;SDS011;5274;51.992;8.518;2023-09-12T03:17:10;67.88;;;62.83;;
10452;SDS011;5274;51.992;8.518;2023-09-12T03:19:36;67.93;;;62.92;;
10452;SDS011;5274;51.992;8.518;2023-09-12T03:22:03;67.05;;;61.92;;
10452;SDS011;5274;51.992;8.518;2023-09-12T03:24:29;68.18;;;62.97;;
10452;SDS011;5274;51.992;8.518;2023-09-12T03:26:56;69.13;;;64.15;;
10452;SDS011;5274;51.992;8.518;2023-09-12T03:29:22;69.60;;;64.30;;
10452;SDS011;5274;51.992;8.518;2023-09-12T03:31:48;69.97;;;64.75;;
10452;SDS011;5274;51.992;8.518;2023-09-12T03:34:14;70.50;;;65.38;;
10452;SDS011;5274;51.992;8.518;2023-09-12T03:36:40;69.15;;;63.95;;
10452;SDS011;5274;51.992;8.518;2023-09-12T03:39:06;70.32;;;64.93;;
10452;SDS011;5274;51.992;8.518;2023-09-12T03:41:33;69.50;;;64.20;;
10452;SDS011;5274;51.992;8.518;2023-09-12T03:44:00;69.05;;;64.03;;
10452;SDS011;5274;51.992;8.518;2023-09-12T03:46:26;68.20;;;63.20;;
10452;SDS011;5274;51.992;8.518;2023-09-12T03:48:52;68.35;;;63.25;;
10452;SDS011;5274;51.992;8.518;2023-09-12T03:51:18;68.13;;;63.15;;
10452;SDS011;5274;51.992;8.518;2023-09-12T03:53:44;65.80;;;61.00;;
10452;SDS011;5274;51.992;8.518;2023-09-12T03:56:12;66.80;;;62.10;;
10452;SDS011;5274;51.992;8.518;2023-09-12T03:58:39;65.55;;;60.92;;
10452;SDS011;5274;51.992;8.518;2023-09-12T04:01:05;62.65;;;58.25;;
10452;SDS011;5274;51.992;8.518;2023-09-12T04:03:31;58.30;;;54.45;;
10452;SDS011;5274;51.992;8.518;2023-09-12T04:05:57;58.42;;;54.53;;
10452;SDS011;5274;51.992;8.518;2023-09-12T04:08:23;55.92;;;52.33;;
10452;SDS011;5274;51.992;8.518;2023-09-12T04:10:49;57.42;;;53.63;;
10452;SDS011;5274;51.992;8.518;2023-09-12T04:13:15;54.60;;;51.28;;
10452;SDS011;5274;51.992;8.518;2023-09-12T04:15:41;54.63;;;51.13;;
10452;SDS011;5274;51.992;8.518;2023-09-12T04:18:07;57.83;;;54.13;;
10452;SDS011;5274;51.992;8.518;2023-09-12T04:20:33;57.28;;;53.67;;
10452;SDS011;5274;51.992;8.518;2023-09-12T04:23:00;56.88;;;53.38;;
10452;SDS011;5274;51.992;8.518;2023-09-12T04:25:27;58.50;;;54.80;;
10452;SDS011;5274;51.992;8.518;2023-09-12T04:27:53;59.42;;;55.63;;
10452;SDS011;5274;51.992;8.518;2023-09-12T04:30:19;60.60;;;56.50;;
10452;SDS011;5274;51.992;8.518;2023-09-12T04:32:45;59.58;;;55.78;;
10452;SDS011;5274;51.992;8.518;2023-09-12T04:35:11;60.65;;;56.65;;
10452;SDS011;5274;51.992;8.518;2023-09-12T04:37:37;61.38;;;57.38;;
10452;SDS011;5274;51.992;8.518;2023-09-12T04:40:03;59.60;;;55.90;;
10452;SDS011;5274;51.992;8.518;2023-09-12T04:42:31;60.88;;;56.97;;
10452;SDS011;5274;51.992;8.518;2023-09-12T04:44:57;62.13;;;58.03;;
10452;SDS011;5274;51.992;8.518;2023-09-12T04:47:23;63.13;;;58.50;;
10452;SDS011;5274;51.992;8.518;2023-09-12T04:49:49;63.25;;;57.97;;
10452;SDS011;5274;51.992;8.518;2023-09-12T04:52:15;78.47;;;71.85;;
10452;SDS011;5274;51.992;8.518;2023-09-12T04:54:41;87.80;;;80.47;;
10452;SDS011;5274;51.992;8.518;2023-09-12T04:57:07;85.78;;;79.13;;
10452;SDS011;5274;51.992;8.518;2023-09-12T04:59:33;83.97;;;77.85;;
10452;SDS011;5274;51.992;8.518;2023-09-12T05:01:59;84.30;;;78.50;;
10452;SDS011;5274;51.992;8.518;2023-09-12T05:04:25;80.05;;;74.60;;
10452;SDS011;5274;51.992;8.518;2023-09-12T05:06:51;81.28;;;75.47;;
10452;SDS011;5274;51.992;8.518;2023-09-12T05:09:18;79.15;;;73.50;;
10452;SDS011;5274;51.992;8.518;2023-09-12T05:11:44;77.00;;;71.53;;
10452;SDS011;5274;51.992;8.518;2023-09-12T05:14:10;74.57;;;69.32;;
10452;SDS011;5274;51.992;8.518;2023-09-12T05:16:36;73.30;;;68.40;;
10452;SDS011;5274;51.992;8.518;2023-09-12T05:19:02;71.45;;;66.28;;
10452;SDS011;5274;51.992;8.518;2023-09-12T05:21:28;68.10;;;63.20;;
10452;SDS011;5274;51.992;8.518;2023-09-12T05:23:54;63.35;;;58.72;;
10452;SDS011;5274;51.992;8.518;2023-09-12T05:26:20;61.92;;;57.80;;
10452;SDS011;5274;51.992;8.518;2023-09-12T05:28:46;63.63;;;58.70;;
10452;SDS011;5274;51.992;8.518;2023-09-12T05:31:12;61.30;;;56.72;;
10452;SDS011;5274;51.992;8.518;2023-09-12T05:33:38;62.67;;;58.22;;
10452;SDS011;5274;51.992;8.518;2023-09-12T05:36:04;60.85;;;56.75;;
10452;SDS011;5274;51.992;8.518;2023-09-12T05:38:30;61.55;;;57.15;;
10452;SDS011;5274;51.992;8.518;2023-09-12T05:40:56;62.47;;;57.90;;
10452;SDS011;5274;51.992;8.518;2023-09-12T05:43:22;61.17;;;56.97;;
10452;SDS011;5274;51.992;8.518;2023-09-12T05:45:48;59.08;;;54.90;;
10452;SDS011;5274;51.992;8.518;2023-09-12T05:48:14;59.05;;;54.72;;
10452;SDS011;5274;51.992;8.518;2023-09-12T05:50:40;54.83;;;51.28;;
10452;SDS011;5274;51.992;8.518;2023-09-12T05:53:07;54.58;;;51.10;;
10452;SDS011;5274;51.992;8.518;2023-09-12T05:55:33;57.08;;;53.17;;
10452;SDS011;5274;51.992;8.518;2023-09-12T05:57:59;51.20;;;47.92;;
10452;SDS011;5274;51.992;8.518;2023-09-12T06:00:25;51.20;;;47.90;;
10452;SDS011;5274;51.992;8.518;2023-09-12T06:02:51;56.75;;;52.90;;
10452;SDS011;5274;51.992;8.518;2023-09-12T06:05:17;59.67;;;55.47;;
10452;SDS011;5274;51.992;8.518;2023-09-12T06:07:43;58.42;;;54.50;;
10452;SDS011;5274;51.992;8.518;2023-09-12T06:10:09;60.05;;;56.15;;
10452;SDS011;5274;51.992;8.518;2023-09-12T06:12:35;60.53;;;56.55;;
10452;SDS011;5274;51.992;8.518;2023-09-12T06:15:02;58.97;;;55.03;;
10452;SDS011;5274;51.992;8.518;2023-09-12T06:17:29;60.17;;;56.08;;
10452;SDS011;5274;51.992;8.518;2023-09-12T06:19:55;60.10;;;56.00;;
10452;SDS011;5274;51.992;8.518;2023-09-12T06:22:21;59.47;;;55.33;;
10452;SDS011;5274;51.992;8.518;2023-09-12T06:24:50;59.70;;;55.40;;
10452;SDS011;5274;51.992;8.518;2023-09-12T06:27:16;60.80;;;56.50;;
10452;SDS011;5274;51.992;8.518;2023-09-12T06:29:46;60.50;;;56.08;;
10452;SDS011;5274;51.992;8.518;2023-09-12T06:32:17;59.13;;;55.03;;
10452;SDS011;5274;51.992;8.518;2023-09-12T06:34:43;60.63;;;56.30;;
10452;SDS011;5274;51.992;8.518;2023-09-12T06:37:10;60.90;;;56.38;;
10452;SDS011;5274;51.992;8.518;2023-09-12T06:39:36;60.85;;;56.65;;
10452;SDS011;5274;51.992;8.518;2023-09-12T06:42:02;61.45;;;57.20;;
10452;SDS011;5274;51.992;8.518;2023-09-12T06:44:28;61.38;;;57.08;;
10452;SDS011;5274;51.992;8.518;2023-09-12T06:46:54;54.50;;;51.10;;
10452;SDS011;5274;51.992;8.518;2023-09-12T06:49:20;51.95;;;48.45;;
10452;SDS011;5274;51.992;8.518;2023-09-12T06:51:46;55.45;;;51.65;;
10452;SDS011;5274;51.992;8.518;2023-09-12T06:54:12;56.38;;;52.70;;
10452;SDS011;5274;51.992;8.518;2023-09-12T06:56:38;59.72;;;54.75;;
10452;SDS011;5274;51.992;8.518;2023-09-12T06:59:06;61.72;;;57.38;;
10452;SDS011;5274;51.992;8.518;2023-09-12T07:01:33;61.92;;;57.45;;
10452;SDS011;5274;51.992;8.518;2023-09-12T07:03:59;62.80;;;58.50;;
10452;SDS011;5274;51.992;8.518;2023-09-12T07:06:24;63.33;;;58.53;;
10452;SDS011;5274;51.992;8.518;2023-09-12T07:08:50;79.68;;;73.25;;
10452;SDS011;5274;51.992;8.518;2023-09-12T07:11:17;84.32;;;78.22;;
10452;SDS011;5274;51.992;8.518;2023-09-12T07:13:44;84.65;;;78.78;;
10452;SDS011;5274;51.992;8.518;2023-09-12T07:16:10;85.65;;;79.65;;
10452;SDS011;5274;51.992;8.518;2023-09-12T07:18:36;87.53;;;81.40;;
10452;SDS011;5274;51.992;8.518;2023-09-12T07:26:34;208.80;;;149.35;;
10452;SDS011;5274;51.992;8.518;2023-09-12T07:29:00;212.70;;;145.48;;
10452;SDS011;5274;51.992;8.518;2023-09-12T07:31:27;263.27;;;145.02;;
10452;SDS011;5274;51.992;8.518;2023-09-12T07:33:54;262.98;;;153.23;;
10452;SDS011;5274;51.992;8.518;2023-09-12T07:36:20;249.75;;;150.98;;
10452;SDS011;5274;51.992;8.518;2023-09-12T07:38:46;206.85;;;148.57;;
10452;SDS011;5274;51.992;8.518;2023-09-12T07:41:12;333.33;;;152.93;;
10452;SDS011;5274;51.992;8.518;2023-09-12T07:43:38;234.38;;;141.70;;
10452;SDS011;5274;51.992;8.518;2023-09-12T07:46:05;160.23;;;135.98;;
10452;SDS011;5274;51.992;8.518;2023-09-12T07:48:31;163.80;;;136.27;;
10452;SDS011;5274;51.992;8.518;2023-09-12T07:50:57;207.20;;;144.65;;
10452;SDS011;5274;51.992;8.518;2023-09-12T07:53:23;239.32;;;145.10;;
10452;SDS011;5274;51.992;8.518;2023-09-12T07:55:49;194.35;;;150.25;;
10452;SDS011;5274;51.992;8.518;2023-09-12T07:58:16;185.88;;;147.70;;
10452;SDS011;5274;51.992;8.518;2023-09-12T08:00:45;187.45;;;149.43;;
10452;SDS011;5274;51.992;8.518;2023-09-12T08:03:11;202.35;;;151.73;;
10452;SDS011;5274;51.992;8.518;2023-09-12T08:05:37;177.60;;;147.90;;
10452;SDS011;5274;51.992;8.518;2023-09-12T08:08:03;180.00;;;143.68;;
10452;SDS011;5274;51.992;8.518;2023-09-12T08:10:29;190.32;;;142.73;;
10452;SDS011;5274;51.992;8.518;2023-09-12T08:12:55;239.95;;;153.15;;
10452;SDS011;5274;51.992;8.518;2023-09-12T08:15:21;204.70;;;147.95;;
10452;SDS011;5274;51.992;8.518;2023-09-12T08:17:47;209.25;;;147.60;;
10452;SDS011;5274;51.992;8.518;2023-09-12T08:20:16;166.23;;;137.43;;
10452;SDS011;5274;51.992;8.518;2023-09-12T08:22:42;158.48;;;131.40;;
10452;SDS011;5274;51.992;8.518;2023-09-12T08:25:09;169.27;;;133.88;;
10452;SDS011;5274;51.992;8.518;2023-09-12T08:27:37;164.43;;;132.38;;
10452;SDS011;5274;51.992;8.518;2023-09-12T08:30:03;174.90;;;133.52;;
10452;SDS011;5274;51.992;8.518;2023-09-12T08:32:29;168.02;;;140.00;;
10452;SDS011;5274;51.992;8.518;2023-09-12T08:34:55;181.05;;;139.10;;
10452;SDS011;5274;51.992;8.518;2023-09-12T08:37:21;179.63;;;139.75;;
10452;SDS011;5274;51.992;8.518;2023-09-12T08:39:47;181.40;;;143.30;;
10452;SDS011;5274;51.992;8.518;2023-09-12T08:42:13;188.13;;;142.15;;
10452;SDS011;5274;51.992;8.518;2023-09-12T08:44:40;177.68;;;143.02;;
10452;SDS011;5274;51.992;8.518;2023-09-12T08:47:07;186.65;;;144.75;;
10452;SDS011;5274;51.992;8.518;2023-09-12T08:49:34;292.27;;;153.02;;
10452;SDS011;5274;51.992;8.518;2023-09-12T08:52:01;288.75;;;148.57;;
10452;SDS011;5274;51.992;8.518;2023-09-12T08:54:27;756.13;;;184.70;;
10452;SDS011;5274;51.992;8.518;2023-09-12T08:56:53;419.30;;;164.48;;
10452;SDS011;5274;51.992;8.518;2023-09-12T08:59:20;240.75;;;144.13;;
10452;SDS011;5274;51.992;8.518;2023-09-12T09:01:46;198.48;;;147.25;;
10452;SDS011;5274;51.992;8.518;2023-09-12T09:04:12;194.52;;;144.95;;
10452;SDS011;5274;51.992;8.518;2023-09-12T09:06:38;832.60;;;198.05;;
10452;SDS011;5274;51.992;8.518;2023-09-12T09:09:07;315.45;;;155.98;;
10452;SDS011;5274;51.992;8.518;2023-09-12T09:11:33;402.70;;;160.45;;
10452;SDS011;5274;51.992;8.518;2023-09-12T09:13:59;178.82;;;139.80;;
10452;SDS011;5274;51.992;8.518;2023-09-12T09:16:25;153.02;;;125.82;;
10452;SDS011;5274;51.992;8.518;2023-09-12T09:21:21;165.57;;;127.60;;
10452;SDS011;5274;51.992;8.518;2023-09-12T09:23:54;169.82;;;131.07;;
10452;SDS011;5274;51.992;8.518;2023-09-12T09:26:20;174.38;;;132.95;;
10452;SDS011;5274;51.992;8.518;2023-09-12T09:29:02;155.98;;;128.20;;
10452;SDS011;5274;51.992;8.518;2023-09-12T09:31:29;158.88;;;124.70;;
10452;SDS011;5274;51.992;8.518;2023-09-12T09:33:57;164.63;;;126.88;;
10452;SDS011;5274;51.992;8.518;2023-09-12T09:36:23;185.18;;;129.57;;
10452;SDS011;5274;51.992;8.518;2023-09-12T09:38:49;176.15;;;133.05;;
10452;SDS011;5274;51.992;8.518;2023-09-12T09:41:15;169.80;;;130.43;;
10452;SDS011;5274;51.992;8.518;2023-09-12T09:43:41;166.13;;;129.73;;
10452;SDS011;5274;51.992;8.518;2023-09-12T09:46:08;177.50;;;132.50;;
10452;SDS011;5274;51.992;8.518;2023-09-12T09:48:40;163.10;;;127.80;;
10452;SDS011;5274;51.992;8.518;2023-09-12T09:51:14;162.20;;;126.53;;
10452;SDS011;5274;51.992;8.518;2023-09-12T09:53:40;171.20;;;128.15;;
10452;SDS011;5274;51.992;8.518;2023-09-12T09:58:34;163.10;;;126.78;;
10452;SDS011;5274;51.992;8.518;2023-09-12T10:01:01;204.75;;;130.25;;
10452;SDS011;5274;51.992;8.518;2023-09-12T10:03:29;164.73;;;135.32;;
10452;SDS011;5274;51.992;8.518;2023-09-12T10:05:56;150.68;;;130.68;;
10452;SDS011;5274;51.992;8.518;2023-09-12T10:08:23;146.98;;;126.00;;
10452;SDS011;5274;51.992;8.518;2023-09-12T10:10:49;153.93;;;129.10;;
10452;SDS011;5274;51.992;8.518;2023-09-12T10:13:16;158.02;;;131.90;;
10452;SDS011;5274;51.992;8.518;2023-09-12T10:15:42;148.18;;;127.18;;
10452;SDS011;5274;51.992;8.518;2023-09-12T10:18:09;221.05;;;135.52;;
10452;SDS011;5274;51.992;8.518;2023-09-12T10:20:55;150.85;;;131.88;;
10452;SDS011;5274;51.992;8.518;2023-09-12T10:26:01;144.95;;;129.23;;
10452;SDS011;5274;51.992;8.518;2023-09-12T10:28:28;147.57;;;131.23;;
10452;SDS011;5274;51.992;8.518;2023-09-12T10:30:54;140.55;;;125.45;;
10452;SDS011;5274;51.992;8.518;2023-09-12T10:33:23;127.68;;;113.68;;
10452;SDS011;5274;51.992;8.518;2023-09-12T10:35:50;140.45;;;125.45;;
10452;SDS011;5274;51.992;8.518;2023-09-12T10:38:17;141.77;;;126.47;;
10452;SDS011;5274;51.992;8.518;2023-09-12T10:40:44;134.63;;;119.93;;
10452;SDS011;5274;51.992;8.518;2023-09-12T10:43:10;135.70;;;120.63;;
10452;SDS011;5274;51.992;8.518;2023-09-12T10:45:36;143.82;;;118.93;;
10452;SDS011;5274;51.992;8.518;2023-09-12T10:48:03;131.57;;;117.38;;
10452;SDS011;5274;51.992;8.518;2023-09-12T10:50:29;132.68;;;118.68;;
10452;SDS011;5274;51.992;8.518;2023-09-12T10:52:56;134.60;;;120.22;;
10452;SDS011;5274;51.992;8.518;2023-09-12T10:55:22;131.38;;;117.10;;
10452;SDS011;5274;51.992;8.518;2023-09-12T10:58:04;121.57;;;109.45;;
10452;SDS011;5274;51.992;8.518;2023-09-12T11:00:30;127.10;;;114.40;;
10452;SDS011;5274;51.992;8.518;2023-09-12T11:05:50;127.75;;;114.93;;
10452;SDS011;5274;51.992;8.518;2023-09-12T11:08:17;124.97;;;112.38;;
10452;SDS011;5274;51.992;8.518;2023-09-12T11:10:43;125.15;;;112.75;;
10452;SDS011;5274;51.992;8.518;2023-09-12T11:13:16;128.00;;;115.32;;
10452;SDS011;5274;51.992;8.518;2023-09-12T11:18:28;124.93;;;112.93;;
10452;SDS011;5274;51.992;8.518;2023-09-12T11:23:23;121.43;;;110.47;;
10452;SDS011;5274;51.992;8.518;2023-09-12T11:26:02;115.28;;;105.15;;
10452;SDS011;5274;51.992;8.518;2023-09-12T11:28:29;92.70;;;85.10;;
10452;SDS011;5274;51.992;8.518;2023-09-12T11:30:56;87.00;;;80.40;;
10452;SDS011;5274;51.992;8.518;2023-09-12T11:33:23;88.40;;;82.30;;
10452;SDS011;5274;51.992;8.518;2023-09-12T11:35:51;77.18;;;72.05;;
10452;SDS011;5274;51.992;8.518;2023-09-12T11:38:25;87.43;;;81.68;;
10452;SDS011;5274;51.992;8.518;2023-09-12T11:40:52;73.05;;;68.35;;
10452;SDS011;5274;51.992;8.518;2023-09-12T11:43:22;18.42;;;17.40;;
10452;SDS011;5274;51.992;8.518;2023-09-12T11:45:49;16.45;;;15.52;;
10452;SDS011;5274;51.992;8.518;2023-09-12T11:48:16;15.57;;;14.57;;
10452;SDS011;5274;51.992;8.518;2023-09-12T11:50:42;15.10;;;14.18;;
10452;SDS011;5274;51.992;8.518;2023-09-12T11:53:14;14.25;;;13.45;;
10452;SDS011;5274;51.992;8.518;2023-09-12T11:55:46;12.50;;;11.73;;
10452;SDS011;5274;51.992;8.518;2023-09-12T11:58:13;11.02;;;10.43;;
10452;SDS011;5274;51.992;8.518;2023-09-12T12:00:46;10.77;;;9.98;;
10452;SDS011;5274;51.992;8.518;2023-09-12T12:03:13;9.63;;;9.13;;
10452;SDS011;5274;51.992;8.518;2023-09-12T12:05:39;10.02;;;9.43;;
10452;SDS011;5274;51.992;8.518;2023-09-12T12:08:06;9.85;;;9.25;;
10452;SDS011;5274;51.992;8.518;2023-09-12T12:10:33;9.27;;;8.77;;
10452;SDS011;5274;51.992;8.518;2023-09-12T12:12:59;9.73;;;9.13;;
10452;SDS011;5274;51.992;8.518;2023-09-12T12:15:27;9.50;;;9.00;;
10452;SDS011;5274;51.992;8.518;2023-09-12T12:17:56;10.57;;;9.88;;
10452;SDS011;5274;51.992;8.518;2023-09-12T12:20:22;9.13;;;8.43;;
10452;SDS011;5274;51.992;8.518;2023-09-12T12:22:48;7.53;;;7.07;;
10452;SDS011;5274;51.992;8.518;2023-09-12T12:25:16;9.60;;;8.80;;
10452;SDS011;5274;51.992;8.518;2023-09-12T12:27:42;8.20;;;7.60;;
10452;SDS011;5274;51.992;8.518;2023-09-12T12:30:09;9.65;;;9.05;;
10452;SDS011;5274;51.992;8.518;2023-09-12T12:32:36;7.30;;;6.82;;
10452;SDS011;5274;51.992;8.518;2023-09-12T12:35:05;9.15;;;8.55;;
10452;SDS011;5274;51.992;8.518;2023-09-12T12:37:32;9.75;;;9.15;;
10452;SDS011;5274;51.992;8.518;2023-09-12T12:39:59;9.57;;;8.95;;
10452;SDS011;5274;51.992;8.518;2023-09-12T12:42:32;9.20;;;8.65;;
10452;SDS011;5274;51.992;8.518;2023-09-12T12:44:58;9.23;;;8.65;;
10452;SDS011;5274;51.992;8.518;2023-09-12T12:47:24;9.25;;;8.68;;
10452;SDS011;5274;51.992;8.518;2023-09-12T12:49:51;8.60;;;8.10;;
10452;SDS011;5274;51.992;8.518;2023-09-12T12:52:18;9.43;;;8.82;;
10452;SDS011;5274;51.992;8.518;2023-09-12T12:54:47;9.68;;;9.05;;
10452;SDS011;5274;51.992;8.518;2023-09-12T12:57:16;9.88;;;9.18;;
10452;SDS011;5274;51.992;8.518;2023-09-12T12:59:45;9.65;;;9.05;;
10452;SDS011;5274;51.992;8.518;2023-09-12T13:02:11;9.80;;;9.20;;
10452;SDS011;5274;51.992;8.518;2023-09-12T13:04:37;9.93;;;9.27;;
10452;SDS011;5274;51.992;8.518;2023-09-12T13:07:03;10.18;;;9.57;;
10452;SDS011;5274;51.992;8.518;2023-09-12T13:09:30;10.07;;;9.40;;
10452;SDS011;5274;51.992;8.518;2023-09-12T13:11:56;10.07;;;9.38;;
10452;SDS011;5274;51.992;8.518;2023-09-12T13:14:22;9.68;;;9.05;;
10452;SDS011;5274;51.992;8.518;2023-09-12T13:16:55;10.02;;;9.43;;
10452;SDS011;5274;51.992;8.518;2023-09-12T13:19:21;10.05;;;9.45;;
10452;SDS011;5274;51.992;8.518;2023-09-12T13:21:47;10.20;;;9.50;;
10452;SDS011;5274;51.992;8.518;2023-09-12T13:24:13;10.45;;;9.20;;
10452;SDS011;5274;51.992;8.518;2023-09-12T13:26:39;10.43;;;9.63;;
10452;SDS011;5274;51.992;8.518;2023-09-12T13:29:05;10.00;;;9.43;;
10452;SDS011;5274;51.992;8.518;2023-09-12T13:31:31;10.18;;;9.57;;
10452;SDS011;5274;51.992;8.518;2023-09-12T13:33:57;9.82;;;9.32;;
10452;SDS011;5274;51.992;8.518;2023-09-12T13:36:23;9.80;;;9.07;;
10452;SDS011;5274;51.992;8.518;2023-09-12T13:38:49;10.38;;;9.77;;
10452;SDS011;5274;51.992;8.518;2023-09-12T13:41:16;10.63;;;10.02;;
10452;SDS011;5274;51.992;8.518;2023-09-12T13:43:42;9.63;;;9.13;;
10452;SDS011;5274;51.992;8.518;2023-09-12T13:46:12;10.50;;;9.90;;
10452;SDS011;5274;51.992;8.518;2023-09-12T13:48:38;10.70;;;10.10;;
10452;SDS011;5274;51.992;8.518;2023-09-12T13:51:04;10.35;;;9.60;;
10452;SDS011;5274;51.992;8.518;2023-09-12T13:53:30;10.60;;;9.90;;
10452;SDS011;5274;51.992;8.518;2023-09-12T13:55:56;10.70;;;10.00;;
10452;SDS011;5274;51.992;8.518;2023-09-12T13:58:23;9.98;;;9.30;;
10452;SDS011;5274;51.992;8.518;2023-09-12T14:00:49;10.00;;;9.43;;
10452;SDS011;5274;51.992;8.518;2023-09-12T14:03:14;9.98;;;9.48;;
10452;SDS011;5274;51.992;8.518;2023-09-12T14:05:41;9.65;;;9.13;;
10452;SDS011;5274;51.992;8.518;2023-09-12T14:08:06;10.45;;;9.85;;
10452;SDS011;5274;51.992;8.518;2023-09-12T14:10:32;9.90;;;9.40;;
10452;SDS011;5274;51.992;8.518;2023-09-12T14:12:58;10.13;;;9.52;;
10452;SDS011;5274;51.992;8.518;2023-09-12T14:15:24;9.77;;;9.27;;
10452;SDS011;5274;51.992;8.518;2023-09-12T14:17:50;9.50;;;9.00;;
10452;SDS011;5274;51.992;8.518;2023-09-12T14:20:16;9.52;;;9.00;;
10452;SDS011;5274;51.992;8.518;2023-09-12T14:22:43;9.48;;;8.95;;
10452;SDS011;5274;51.992;8.518;2023-09-12T14:25:09;9.70;;;9.10;;
10452;SDS011;5274;51.992;8.518;2023-09-12T14:27:39;9.50;;;8.90;;
10452;SDS011;5274;51.992;8.518;2023-09-12T14:30:05;9.63;;;9.13;;
10452;SDS011;5274;51.992;8.518;2023-09-12T14:32:31;9.60;;;8.80;;
10452;SDS011;5274;51.992;8.518;2023-09-12T14:34:57;9.52;;;8.95;;
10452;SDS011;5274;51.992;8.518;2023-09-12T14:37:23;9.57;;;8.98;;
10452;SDS011;5274;51.992;8.518;2023-09-12T14:39:52;9.73;;;8.93;;
10452;SDS011;5274;51.992;8.518;2023-09-12T14:42:18;9.77;;;9.02;;
10452;SDS011;5274;51.992;8.518;2023-09-12T14:44:44;9.30;;;8.70;;
10452;SDS011;5274;51.992;8.518;2023-09-12T14:47:10;9.63;;;9.07;;
10452;SDS011;5274;51.992;8.518;2023-09-12T14:49:36;9.57;;;8.90;;